Archival Weather

Atar

Atar, Mauritania (GQPA)

Report from: Wednesday, December 6, 2023 6:00 PM GMT
Current time: Thursday, April 25, 2024 5:10 AM GMT

Current weather – Weather history – Daily summaries
Weather forecast

Temperature32.0°C (89.6°F)
Heat index30.1°C (86.2°F)
Dew point8.0°C (46.4°F)
Winds 10 kts (5.1 m/s, 11.5 mph) North-Northeast (20°)
Clouds Sky clear
Altimeter29.97 in.Hg (1015 mB)
Relative humidity23 %
Density altitude2,039 ft. (621 m)
Remarks Ceiling and visibility OK
Flight conditions Visual Meteorological Conditions
Raw dataGQPA 061800Z 02010KT CAVOK 32/08 Q1015
An error has occurred. This application may no longer respond until reloaded. Reload 🗙